Time;durP1;ratioP1;P1;durP2;ratioP2;P2;SDS_P1;SDS_P2;PMS_P1;PMS_P2;Temp;Humidity;BMP_temperature;BMP_pressure;BME280_temperature;BME280_humidity;BME280_pressure;Samples;Min_cycle;Max_cycle;Signal;HPM_P1;HPM_P2
2022/07/24 00:00:18;;;;;;;1.70;1.60;;;16.10;99.90;;;;;;4848080;29;20413;-89
2022/07/24 00:02:44;;;;;;;1.40;1.30;;;16.10;99.90;;;;;;4839546;29;20054;-89
2022/07/24 00:05:10;;;;;;;2.20;1.97;;;16.00;99.90;;;;;;4853290;29;20056;-89
2022/07/24 00:07:36;;;;;;;2.23;1.73;;;16.10;99.90;;;;;;4844816;29;20297;-89
2022/07/24 00:10:04;;;;;;;3.17;1.52;;;16.00;99.90;;;;;;4821594;29;20057;-90
2022/07/24 00:12:30;;;;;;;2.33;1.90;;;16.00;99.90;;;;;;4841268;29;20057;-88
2022/07/24 00:14:56;;;;;;;2.63;1.95;;;16.00;99.90;;;;;;4836802;29;20116;-89
2022/07/24 00:17:21;;;;;;;4.70;1.70;;;16.00;99.90;;;;;;4862187;29;20053;-89
2022/07/24 00:19:47;;;;;;;1.47;1.33;;;15.90;99.90;;;;;;4842655;29;20689;-90
2022/07/24 00:22:13;;;;;;;2.70;1.67;;;15.90;99.90;;;;;;4850079;29;20064;-89
2022/07/24 00:24:39;;;;;;;2.80;1.88;;;15.80;99.90;;;;;;4833721;29;20106;-88
2022/07/24 00:27:05;;;;;;;1.55;1.45;;;15.10;99.90;;;;;;4846257;29;20053;-89
2022/07/24 00:29:31;;;;;;;3.10;2.13;;;15.80;99.90;;;;;;4839299;29;20461;-90
2022/07/24 00:31:57;;;;;;;4.27;1.97;;;15.80;99.90;;;;;;4828101;29;20305;-92
2022/07/24 00:34:22;;;;;;;3.40;1.70;;;15.80;99.90;;;;;;4841319;29;20041;-89
2022/07/24 00:36:48;;;;;;;1.97;1.77;;;15.80;99.90;;;;;;4852629;29;20305;-89
2022/07/24 00:39:14;;;;;;;2.70;1.97;;;15.80;99.90;;;;;;4816883;29;20057;-89
2022/07/24 00:41:39;;;;;;;2.50;2.00;;;15.70;99.90;;;;;;4831457;29;20523;-89
2022/07/24 00:44:14;;;;;;;2.05;1.85;;;15.80;99.90;;;;;;4854046;29;20769;-89
2022/07/24 00:46:41;;;;;;;2.08;1.80;;;15.70;99.90;;;;;;4851689;29;20052;-89
2022/07/24 00:49:11;;;;;;;2.45;1.77;;;15.70;99.90;;;;;;4834325;29;20078;-89
2022/07/24 00:51:40;;;;;;;5.55;2.40;;;15.70;99.90;;;;;;4874567;29;20044;-89
2022/07/24 00:54:08;;;;;;;2.53;2.10;;;15.70;99.90;;;;;;4815985;29;20105;-89
2022/07/24 00:56:35;;;;;;;3.45;2.22;;;15.80;99.90;;;;;;4850288;29;20056;-89
2022/07/24 00:59:01;;;;;;;2.40;1.98;;;15.80;99.90;;;;;;4834941;29;20057;-90
2022/07/24 01:01:27;;;;;;;;;;;15.70;99.90;;;;;;4835919;29;20107;-90
2022/07/24 01:03:53;;;;;;;2.05;1.52;;;15.00;99.90;;;;;;4850957;29;19972;-89
2022/07/24 01:06:19;;;;;;;3.40;2.67;;;15.70;99.90;;;;;;4850925;29;20060;-89
2022/07/24 01:08:46;;;;;;;1.80;1.67;;;15.80;99.90;;;;;;4855537;29;20044;-89
2022/07/24 01:11:12;;;;;;;4.57;2.47;;;15.80;99.90;;;;;;4852906;29;20105;-89
2022/07/24 01:13:38;;;;;;;3.20;2.58;;;15.80;99.90;;;;;;4839649;29;20079;-90
2022/07/24 01:16:04;;;;;;;3.60;2.80;;;15.80;99.90;;;;;;4832689;29;20102;-88
2022/07/24 01:18:30;;;;;;;2.75;1.98;;;15.70;99.90;;;;;;4839170;29;20538;-89
2022/07/24 01:20:56;;;;;;;2.70;2.30;;;15.70;99.90;;;;;;4848851;29;20120;-90
2022/07/24 01:23:22;;;;;;;3.60;2.33;;;15.70;99.90;;;;;;4831723;29;20497;-89
2022/07/24 01:25:48;;;;;;;3.17;1.98;;;15.80;99.90;;;;;;4838455;29;20050;-89
2022/07/24 01:28:14;;;;;;;3.17;2.33;;;15.70;99.90;;;;;;4845602;29;20056;-89
2022/07/24 01:30:40;;;;;;;2.58;2.08;;;15.70;99.90;;;;;;4833841;29;20057;-89
2022/07/24 01:33:06;;;;;;;2.80;2.10;;;15.70;99.90;;;;;;4841179;29;20061;-90
2022/07/24 01:35:32;;;;;;;4.05;2.83;;;15.70;99.90;;;;;;4852263;29;20519;-90
2022/07/24 01:37:58;;;;;;;1.90;1.80;;;15.70;99.90;;;;;;4829871;29;20065;-89
2022/07/24 01:40:26;;;;;;;3.13;2.60;;;15.70;99.90;;;;;;4840459;29;20148;-88
2022/07/24 01:42:52;;;;;;;2.95;2.20;;;15.70;99.90;;;;;;4856312;29;20088;-88
2022/07/24 01:45:18;;;;;;;4.37;2.57;;;15.60;99.90;;;;;;4823860;29;20085;-89
2022/07/24 01:47:44;;;;;;;3.63;2.33;;;15.70;99.90;;;;;;4849611;29;20041;-89
2022/07/24 01:50:10;;;;;;;;;;;15.70;99.90;;;;;;4828883;29;20059;-89
2022/07/24 01:52:37;;;;;;;3.17;2.53;;;15.60;99.90;;;;;;4853442;29;19924;-89
2022/07/24 01:55:04;;;;;;;3.83;2.60;;;15.60;99.90;;;;;;4830576;29;20411;-90
2022/07/24 01:57:30;;;;;;;3.13;2.25;;;15.60;99.90;;;;;;4842156;29;20139;-89
2022/07/24 01:59:56;;;;;;;6.13;3.13;;;15.60;99.90;;;;;;4841324;29;20050;-89
2022/07/24 02:02:21;;;;;;;2.87;2.57;;;15.60;99.90;;;;;;4833149;29;20061;-89
2022/07/24 02:04:47;;;;;;;5.00;2.90;;;15.60;99.90;;;;;;4852717;29;20302;-90
2022/07/24 02:07:13;;;;;;;2.10;1.90;;;15.60;99.90;;;;;;4854180;29;20052;-89
2022/07/24 02:09:38;;;;;;;2.47;2.17;;;15.50;99.90;;;;;;4840744;29;20053;-89
2022/07/24 02:12:04;;;;;;;3.17;2.40;;;15.50;99.90;;;;;;4858096;29;20105;-90
2022/07/24 02:14:30;;;;;;;2.58;2.35;;;15.50;99.90;;;;;;4840242;29;20345;-88
2022/07/24 02:16:55;;;;;;;3.90;2.53;;;15.50;99.90;;;;;;4853933;29;20049;-90
2022/07/24 02:19:23;;;;;;;2.37;1.87;;;15.50;99.90;;;;;;4872535;29;20042;-89
2022/07/24 02:21:51;;;;;;;2.60;2.08;;;15.50;99.90;;;;;;4840880;29;20096;-89
2022/07/24 02:24:17;;;;;;;3.37;2.43;;;15.50;99.90;;;;;;4855354;29;20061;-89
2022/07/24 02:26:42;;;;;;;3.10;2.40;;;15.50;99.90;;;;;;4836015;29;20049;-90
2022/07/24 02:29:08;;;;;;;2.43;2.03;;;15.50;99.90;;;;;;4825279;29;20050;-89
2022/07/24 02:31:34;;;;;;;3.27;2.40;;;15.50;99.90;;;;;;4827881;29;20053;-89
2022/07/24 02:34:00;;;;;;;2.60;2.42;;;15.40;99.90;;;;;;4838243;29;20097;-89
2022/07/24 02:36:26;;;;;;;5.70;2.90;;;15.40;99.90;;;;;;4856252;29;20060;-91
2022/07/24 02:38:52;;;;;;;2.78;2.08;;;15.40;99.90;;;;;;4836726;29;20081;-90
2022/07/24 02:41:18;;;;;;;3.17;2.73;;;15.40;99.90;;;;;;4826446;29;20055;-89
2022/07/24 02:43:43;;;;;;;3.88;2.50;;;15.40;99.90;;;;;;4848121;29;20040;-89
2022/07/24 02:46:09;;;;;;;3.33;2.50;;;15.40;99.90;;;;;;4834689;29;20045;-89
2022/07/24 02:48:35;;;;;;;3.27;2.33;;;15.40;99.90;;;;;;4831156;29;20045;-90
2022/07/24 02:51:01;;;;;;;3.60;2.50;;;15.40;99.90;;;;;;4851077;29;20049;-90
2022/07/24 02:53:26;;;;;;;3.70;2.50;;;15.30;99.90;;;;;;4832581;29;20041;-89
2022/07/24 02:55:52;;;;;;;2.53;2.20;;;15.30;99.90;;;;;;4856599;29;20457;-89
2022/07/24 02:58:18;;;;;;;2.73;2.00;;;15.30;99.90;;;;;;4850163;29;20539;-90
2022/07/24 03:00:43;;;;;;;4.03;2.37;;;15.30;99.90;;;;;;4837549;29;20306;-89
2022/07/24 03:03:09;;;;;;;5.90;2.93;;;15.30;99.90;;;;;;4840179;29;20057;-89
2022/07/24 03:05:35;;;;;;;3.47;2.23;;;15.30;99.90;;;;;;4836659;29;20305;-89
2022/07/24 03:08:01;;;;;;;2.30;2.10;;;15.30;99.90;;;;;;4863373;29;20690;-90
2022/07/24 03:10:26;;;;;;;3.13;2.40;;;15.30;99.90;;;;;;4832972;29;20568;-90
2022/07/24 03:12:52;;;;;;;5.93;2.37;;;15.30;99.90;;;;;;4854839;29;20373;-90
2022/07/24 03:15:18;;;;;;;3.47;2.53;;;15.20;99.90;;;;;;4845587;29;20128;-90
2022/07/24 03:17:55;;;;;;;2.50;1.93;;;15.20;99.90;;;;;;4848719;29;20525;-89
2022/07/24 03:20:21;;;;;;;;;;;15.20;99.90;;;;;;4844728;29;20052;-89
2022/07/24 03:22:48;;;;;;;4.13;2.25;;;15.20;99.90;;;;;;4858881;29;19996;-88
2022/07/24 03:25:14;;;;;;;4.20;2.75;;;15.20;99.90;;;;;;4841052;29;20524;-88
2022/07/24 03:27:40;;;;;;;3.25;2.30;;;15.20;99.90;;;;;;4844760;29;20124;-89
2022/07/24 03:30:06;;;;;;;4.85;2.55;;;15.20;99.90;;;;;;4854754;29;20060;-88
2022/07/24 03:32:33;;;;;;;4.20;2.30;;;15.20;99.90;;;;;;4849579;29;20457;-89
2022/07/24 03:34:58;;;;;;;6.50;3.15;;;15.20;99.90;;;;;;4843580;29;20054;-88
2022/07/24 03:37:24;;;;;;;3.13;2.83;;;15.20;99.90;;;;;;4845653;29;20115;-89
2022/07/24 03:39:50;;;;;;;5.23;3.03;;;15.20;99.90;;;;;;4857316;29;20148;-89
2022/07/24 03:42:15;;;;;;;2.50;2.00;;;15.20;99.90;;;;;;4826357;29;20310;-88
2022/07/24 03:44:41;;;;;;;5.13;2.50;;;15.20;99.90;;;;;;4856526;29;20048;-88
2022/07/24 03:47:07;;;;;;;3.57;2.47;;;15.20;99.90;;;;;;4859341;29;20144;-89
2022/07/24 03:49:33;;;;;;;4.27;2.80;;;15.20;99.90;;;;;;4859245;29;20041;-89
2022/07/24 03:51:59;;;;;;;2.45;2.08;;;15.20;99.90;;;;;;4839212;29;20678;-89
2022/07/24 03:54:24;;;;;;;3.10;2.27;;;15.20;99.90;;;;;;4844957;29;20120;-91
2022/07/24 03:56:51;;;;;;;3.80;2.60;;;15.20;99.90;;;;;;4834607;29;20041;-89
2022/07/24 03:59:17;;;;;;;;;;;15.20;99.90;;;;;;4840295;29;20789;-89
2022/07/24 04:01:42;;;;;;;3.58;2.42;;;15.20;99.90;;;;;;4853790;29;19935;-88
2022/07/24 04:04:08;;;;;;;3.70;2.50;;;15.20;99.90;;;;;;4841273;29;20052;-89
2022/07/24 04:06:34;;;;;;;4.87;2.60;;;15.20;99.90;;;;;;4858419;29;20056;-89
2022/07/24 04:09:02;;;;;;;4.05;2.92;;;15.30;99.90;;;;;;4837302;29;20124;-90
2022/07/24 04:11:28;;;;;;;3.50;3.20;;;15.30;99.90;;;;;;4833774;29;20064;-89
2022/07/24 04:13:53;;;;;;;2.72;2.40;;;15.30;99.90;;;;;;4850191;29;20049;-89
2022/07/24 04:16:19;;;;;;;3.83;2.93;;;15.30;99.90;;;;;;4837741;29;20041;-88
2022/07/24 04:18:45;;;;;;;4.27;3.03;;;15.30;99.90;;;;;;4833051;29;20057;-89
2022/07/24 04:21:10;;;;;;;3.70;2.70;;;15.30;99.90;;;;;;4855299;29;20306;-90
2022/07/24 04:23:39;;;;;;;3.00;2.03;;;15.30;99.90;;;;;;4852403;29;20114;-88
2022/07/24 04:26:05;;;;;;;2.83;2.15;;;15.30;99.90;;;;;;4856855;29;20057;-89
2022/07/24 04:28:31;;;;;;;5.07;2.60;;;15.30;99.90;;;;;;4854585;29;20544;-89
2022/07/24 04:30:56;;;;;;;4.33;2.40;;;15.30;99.90;;;;;;4859450;29;20297;-89
2022/07/24 04:33:22;;;;;;;3.83;2.77;;;15.30;99.90;;;;;;4835749;29;20114;-89
2022/07/24 04:35:48;;;;;;;2.45;2.03;;;15.30;99.90;;;;;;4845627;29;20044;-88
2022/07/24 04:38:14;;;;;;;3.13;2.23;;;15.30;99.90;;;;;;4849011;29;20056;-89
2022/07/24 04:40:41;;;;;;;4.82;3.33;;;15.30;99.90;;;;;;4874145;29;20681;-89
2022/07/24 04:43:06;;;;;;;5.07;2.88;;;15.30;99.90;;;;;;4853012;29;20463;-89
2022/07/24 04:45:32;;;;;;;4.33;2.43;;;15.30;99.90;;;;;;4840138;29;20128;-89
2022/07/24 04:47:58;;;;;;;2.13;1.70;;;15.30;99.90;;;;;;4835866;29;20076;-88
2022/07/24 04:50:24;;;;;;;7.30;2.67;;;15.30;99.90;;;;;;4845714;29;20061;-89
2022/07/24 04:52:49;;;;;;;3.08;2.80;;;15.30;99.90;;;;;;4851561;29;20140;-89
2022/07/24 04:55:15;;;;;;;3.10;2.75;;;15.40;99.90;;;;;;4849973;29;20082;-89
2022/07/24 04:57:41;;;;;;;6.00;2.97;;;15.40;99.90;;;;;;4836670;29;20101;-89
2022/07/24 05:00:10;;;;;;;3.95;2.22;;;15.40;99.90;;;;;;4829364;29;20046;-89
2022/07/24 05:02:35;;;;;;;3.65;2.55;;;15.50;99.90;;;;;;4846747;29;20045;-89
2022/07/24 05:05:01;;;;;;;4.57;2.13;;;15.50;99.90;;;;;;4852256;29;20509;-88
2022/07/24 05:07:27;;;;;;;3.67;2.42;;;15.60;99.90;;;;;;4857364;29;20090;-89
2022/07/24 05:09:53;;;;;;;3.45;2.25;;;15.60;99.90;;;;;;4849796;29;20056;-88
2022/07/24 05:12:19;;;;;;;4.17;3.20;;;15.70;99.90;;;;;;4829153;29;20055;-89
2022/07/24 05:14:44;;;;;;;3.00;2.70;;;15.70;99.90;;;;;;4854199;29;20056;-89
2022/07/24 05:17:10;;;;;;;3.90;2.50;;;15.80;99.90;;;;;;4834499;29;20131;-88
2022/07/24 05:19:36;;;;;;;4.43;3.03;;;15.80;99.90;;;;;;4843859;29;20041;-90
2022/07/24 05:22:02;;;;;;;3.70;2.47;;;15.90;99.90;;;;;;4847006;29;20057;-91
2022/07/24 05:24:28;;;;;;;3.10;2.50;;;16.00;99.90;;;;;;4849862;29;20049;-89
2022/07/24 05:26:54;;;;;;;3.75;3.42;;;16.00;99.90;;;;;;4869757;29;20045;-89
2022/07/24 05:29:20;;;;;;;3.15;2.55;;;16.10;99.90;;;;;;4827383;29;20052;-88
2022/07/24 05:31:46;;;;;;;4.95;2.83;;;16.20;99.90;;;;;;4842689;29;20046;-88
2022/07/24 05:34:12;;;;;;;4.60;2.92;;;16.30;99.90;;;;;;4836872;29;20104;-88
2022/07/24 05:36:38;;;;;;;4.07;2.78;;;16.50;99.90;;;;;;4856059;29;20100;-90
2022/07/24 05:39:04;;;;;;;5.57;2.85;;;16.60;99.90;;;;;;4850664;29;20061;-88
2022/07/24 05:41:30;;;;;;;6.18;2.80;;;16.80;99.90;;;;;;4841831;29;20505;-88
2022/07/24 05:43:56;;;;;;;4.05;3.47;;;16.90;99.90;;;;;;4854870;29;20053;-88
2022/07/24 05:46:21;;;;;;;4.60;2.95;;;16.80;99.90;;;;;;4832145;29;20048;-88
2022/07/24 05:48:47;;;;;;;3.23;2.87;;;16.90;99.90;;;;;;4860364;29;20382;-88
2022/07/24 05:51:13;;;;;;;4.83;3.20;;;16.90;99.90;;;;;;4832204;29;20050;-88
2022/07/24 05:53:38;;;;;;;6.50;4.28;;;16.90;99.90;;;;;;4834661;29;20819;-89
2022/07/24 05:56:04;;;;;;;6.00;3.93;;;17.00;99.90;;;;;;4839178;29;20045;-89
2022/07/24 05:58:30;;;;;;;6.18;3.38;;;17.10;99.90;;;;;;4857474;29;20048;-90
2022/07/24 06:00:56;;;;;;;6.93;4.00;;;17.30;99.90;;;;;;4832768;29;20045;-89
2022/07/24 06:03:21;;;;;;;8.70;5.30;;;17.40;99.90;;;;;;4826977;29;20049;-88
2022/07/24 06:05:47;;;;;;;4.03;3.20;;;17.50;99.90;;;;;;4843202;29;20066;-91
2022/07/24 06:08:13;;;;;;;5.15;3.83;;;17.50;99.90;;;;;;4832380;29;20447;-89
2022/07/24 06:10:39;;;;;;;5.55;4.65;;;17.60;99.90;;;;;;4844231;29;20045;-89
2022/07/24 06:13:05;;;;;;;4.47;3.42;;;17.50;99.90;;;;;;4857797;29;20149;-89
2022/07/24 06:15:31;;;;;;;4.38;3.85;;;17.50;99.90;;;;;;4849178;29;20195;-89
2022/07/24 06:17:56;;;;;;;5.05;3.55;;;17.70;99.90;;;;;;4850429;29;20069;-90
2022/07/24 06:20:22;;;;;;;5.55;4.15;;;17.80;99.90;;;;;;4809592;29;20045;-89
2022/07/24 06:22:48;;;;;;;4.07;3.70;;;18.00;99.90;;;;;;4827604;29;20129;-89
2022/07/24 06:25:14;;;;;;;7.37;4.90;;;18.10;99.90;;;;;;4835214;29;20404;-89
2022/07/24 06:27:41;;;;;;;4.75;3.95;;;18.20;99.90;;;;;;4839038;29;20318;-89
2022/07/24 06:30:11;;;;;;;5.70;4.20;;;18.40;99.90;;;;;;4841531;29;20052;-90
2022/07/24 06:32:37;;;;;;;6.53;4.35;;;18.50;99.90;;;;;;4849774;29;20093;-94
2022/07/24 06:35:03;;;;;;;6.97;4.30;;;18.60;99.90;;;;;;4843356;29;20050;-90
2022/07/24 06:37:28;;;;;;;4.32;3.50;;;18.70;99.90;;;;;;4830735;29;20298;-91
2022/07/24 06:39:54;;;;;;;5.75;4.18;;;18.80;99.90;;;;;;4831899;29;20046;-87
2022/07/24 06:42:20;;;;;;;9.23;4.82;;;18.90;99.90;;;;;;4831434;29;20089;-88
2022/07/24 06:44:45;;;;;;;6.07;4.53;;;19.00;99.90;;;;;;4830447;29;20388;-87
2022/07/24 06:47:11;;;;;;;4.72;4.15;;;19.10;99.90;;;;;;4819832;29;20325;-89
2022/07/24 06:49:37;;;;;;;4.70;4.13;;;19.20;99.90;;;;;;4828664;29;20189;-87
2022/07/24 06:52:03;;;;;;;6.53;5.07;;;19.30;99.90;;;;;;4851694;29;20044;-89
2022/07/24 06:54:28;;;;;;;6.88;5.60;;;19.40;99.90;;;;;;4838801;29;20049;-87
2022/07/24 06:56:54;;;;;;;6.82;5.63;;;19.40;99.90;;;;;;4858433;29;20132;-85
2022/07/24 06:59:20;;;;;;;6.95;5.05;;;19.50;99.90;;;;;;4842456;29;20053;-84
2022/07/24 07:01:45;;;;;;;7.93;4.88;;;19.60;99.90;;;;;;4849740;29;20487;-86
2022/07/24 07:04:11;;;;;;;7.97;4.97;;;19.70;99.90;;;;;;4849285;29;20037;-85
2022/07/24 07:06:37;;;;;;;11.40;6.75;;;19.80;99.90;;;;;;4846287;29;20300;-84
2022/07/24 07:09:02;;;;;;;6.63;5.07;;;19.80;99.90;;;;;;4853048;29;20136;-83
2022/07/24 07:11:28;;;;;;;9.77;6.57;;;19.90;99.90;;;;;;4869696;29;20052;-86
2022/07/24 07:13:54;;;;;;;6.22;4.85;;;20.00;99.90;;;;;;4868237;29;20045;-88
2022/07/24 07:16:19;;;;;;;10.18;6.65;;;20.00;99.90;;;;;;4841476;29;20110;-87
2022/07/24 07:18:45;;;;;;;8.77;5.75;;;20.10;99.90;;;;;;4874571;29;20083;-85
2022/07/24 07:21:11;;;;;;;11.20;6.95;;;20.20;99.90;;;;;;4878460;29;20045;-85
2022/07/24 07:23:36;;;;;;;9.75;6.32;;;20.30;99.90;;;;;;4834279;29;20208;-86
2022/07/24 07:26:02;;;;;;;6.97;5.72;;;20.40;99.90;;;;;;4872361;29;20057;-89
2022/07/24 07:28:28;;;;;;;12.25;7.05;;;20.50;99.90;;;;;;4835531;29;20052;-88
2022/07/24 07:30:54;;;;;;;9.18;6.57;;;20.60;99.90;;;;;;4853863;29;20042;-91
2022/07/24 07:33:20;;;;;;;8.25;5.82;;;20.70;99.90;;;;;;4874957;29;20044;-90
2022/07/24 07:35:45;;;;;;;9.48;6.07;;;20.80;99.90;;;;;;4859191;29;20053;-89
2022/07/24 07:38:11;;;;;;;6.38;5.65;;;20.90;99.90;;;;;;4830259;29;20148;-88
2022/07/24 07:40:36;;;;;;;9.43;5.70;;;21.00;99.90;;;;;;4853696;29;20045;-88
2022/07/24 07:43:05;;;;;;;8.82;6.30;;;21.10;99.90;;;;;;4858398;29;20063;-89
2022/07/24 07:45:30;;;;;;;10.60;5.75;;;21.20;99.90;;;;;;4873949;29;20068;-89
2022/07/24 07:47:56;;;;;;;8.90;5.68;;;21.20;99.90;;;;;;4847293;29;20126;-88
2022/07/24 07:50:22;;;;;;;13.02;6.03;;;21.20;99.90;;;;;;4835992;29;20101;-86
2022/07/24 07:52:47;;;;;;;5.95;5.28;;;21.10;99.90;;;;;;4834489;29;20061;-89
2022/07/24 07:55:13;;;;;;;9.40;4.53;;;21.00;99.90;;;;;;4840137;29;20057;-88
2022/07/24 07:57:41;;;;;;;7.28;5.78;;;21.00;99.90;;;;;;4859502;29;20044;-88
2022/07/24 08:00:08;;;;;;;7.25;5.38;;;21.00;99.90;;;;;;4837790;29;20056;-88
2022/07/24 08:02:34;;;;;;;9.32;5.68;;;21.00;99.90;;;;;;4832168;29;20045;-88
2022/07/24 08:04:59;;;;;;;10.75;5.00;;;21.00;99.90;;;;;;4843578;29;20293;-89
2022/07/24 08:07:25;;;;;;;6.65;4.80;;;21.10;99.90;;;;;;4839071;29;20094;-88
2022/07/24 08:09:51;;;;;;;5.63;4.25;;;21.30;99.90;;;;;;4841205;29;20044;-87
2022/07/24 08:12:16;;;;;;;12.63;5.07;;;21.40;99.90;;;;;;4832887;29;20045;-88
2022/07/24 08:14:42;;;;;;;6.03;3.30;;;21.50;99.90;;;;;;4848585;29;20128;-84
2022/07/24 08:17:08;;;;;;;5.00;3.42;;;21.60;99.90;;;;;;4866449;29;20064;-87
2022/07/24 08:19:34;;;;;;;3.42;2.78;;;21.70;99.90;;;;;;4871790;29;20041;-85
2022/07/24 08:21:59;;;;;;;6.53;3.67;;;21.80;99.90;;;;;;4847851;29;20049;-84
2022/07/24 08:24:25;;;;;;;3.35;2.55;;;21.90;99.90;;;;;;4868595;29;20057;-86
2022/07/24 08:26:51;;;;;;;3.88;2.40;;;22.00;99.90;;;;;;4858416;29;20449;-86
2022/07/24 08:29:17;;;;;;;4.38;2.35;;;22.10;99.90;;;;;;4834881;29;20049;-87
2022/07/24 08:31:42;;;;;;;4.75;2.25;;;22.20;99.90;;;;;;4853870;29;20053;-88
2022/07/24 08:34:08;;;;;;;3.58;2.90;;;22.30;99.90;;;;;;4854682;29;20437;-89
2022/07/24 08:36:34;;;;;;;3.63;2.70;;;22.40;99.90;;;;;;4838280;29;20053;-88
2022/07/24 08:39:00;;;;;;;3.47;2.22;;;22.40;99.90;;;;;;4854113;29;20125;-89
2022/07/24 08:41:32;;;;;;;3.72;2.40;;;22.30;99.90;;;;;;4870233;29;20619;-88
2022/07/24 08:43:58;;;;;;;5.15;1.88;;;22.30;99.90;;;;;;4860308;29;20041;-88
2022/07/24 08:46:26;;;;;;;3.60;2.45;;;22.30;99.90;;;;;;4828407;29;20136;-89
2022/07/24 08:48:56;;;;;;;5.47;2.28;;;22.30;99.90;;;;;;4856276;29;20080;-90
2022/07/24 08:51:22;;;;;;;3.53;2.05;;;22.30;99.90;;;;;;4851301;29;20037;-88
2022/07/24 08:53:49;;;;;;;5.10;2.13;;;22.30;99.90;;;;;;4839939;29;20481;-86
2022/07/24 08:56:16;;;;;;;3.90;1.95;;;22.30;99.90;;;;;;4847785;29;20115;-89
2022/07/24 08:58:42;;;;;;;2.88;2.05;;;22.30;99.90;;;;;;4864508;29;20056;-88
2022/07/24 09:01:08;;;;;;;3.60;1.90;;;22.30;99.90;;;;;;4857058;29;20037;-91
2022/07/24 09:03:38;;;;;;;;;;;22.30;99.90;;;;;;4854862;29;20108;-90
2022/07/24 09:06:07;;;;;;;3.38;1.73;;;22.20;99.90;;;;;;4844819;29;19924;-92
2022/07/24 09:08:33;;;;;;;3.05;2.15;;;22.30;99.90;;;;;;4850456;29;20088;-88
2022/07/24 09:11:03;;;;;;;2.58;2.35;;;22.40;99.90;;;;;;4840010;29;20041;-87
2022/07/24 09:14:29;;;;;;;2.83;1.65;;;22.60;99.90;;;;;;4829720;29;20289;-87
2022/07/24 09:16:24;;;;;;;4.80;2.13;;;22.70;99.90;;;;;;4849949;29;20077;-86
2022/07/24 09:19:09;;;;;;;2.03;1.65;;;22.80;99.90;;;;;;4842211;29;20110;-86
2022/07/24 09:21:38;;;;;;;2.22;1.77;;;22.80;99.90;;;;;;4847377;29;20049;-87
2022/07/24 09:24:14;;;;;;;2.00;1.67;;;22.80;99.90;;;;;;4862742;29;20060;-86
2022/07/24 09:26:58;;;;;;;2.28;2.03;;;22.80;99.90;;;;;;4863027;29;20408;-85
2022/07/24 09:29:25;;;;;;;4.43;1.67;;;22.90;99.90;;;;;;4847528;29;20049;-85
2022/07/24 09:31:52;;;;;;;2.10;1.70;;;23.10;99.90;;;;;;4863088;29;20108;-86
2022/07/24 09:34:18;;;;;;;3.30;1.90;;;23.20;99.90;;;;;;4862502;29;20045;-86
2022/07/24 09:37:05;;;;;;;2.35;1.73;;;23.30;99.90;;;;;;4859241;29;20048;-89
2022/07/24 09:39:33;;;;;;;2.92;1.92;;;23.30;99.90;;;;;;4838212;29;20056;-86
2022/07/24 09:42:00;;;;;;;3.03;2.22;;;23.30;99.90;;;;;;4862365;29;20049;-86
2022/07/24 09:44:28;;;;;;;1.95;1.60;;;23.30;99.90;;;;;;4861964;29;20049;-88
2022/07/24 09:46:55;;;;;;;5.75;1.88;;;22.90;99.90;;;;;;4862694;29;20060;-86
2022/07/24 09:49:22;;;;;;;2.92;1.60;;;23.50;99.90;;;;;;4861900;29;20139;-87
2022/07/24 09:52:07;;;;;;;2.75;1.65;;;23.50;99.90;;;;;;4847221;29;20053;-86
2022/07/24 09:54:38;;;;;;;3.03;1.33;;;23.50;99.90;;;;;;4862148;29;20188;-86
2022/07/24 09:57:24;;;;;;;1.88;1.73;;;23.60;99.90;;;;;;4862583;29;20453;-86
2022/07/24 09:59:49;;;;;;;5.35;2.20;;;23.70;99.90;;;;;;4862069;29;20053;-86
2022/07/24 10:02:17;;;;;;;2.60;1.42;;;23.70;99.90;;;;;;4862321;29;20060;-86
2022/07/24 10:04:45;;;;;;;2.42;1.70;;;23.80;99.90;;;;;;4847233;29;20057;-86
2022/07/24 10:07:12;;;;;;;2.03;1.70;;;23.80;99.90;;;;;;4832318;29;20049;-86
2022/07/24 10:09:41;;;;;;;1.58;1.45;;;23.90;99.90;;;;;;4831546;29;20653;-86
2022/07/24 10:12:15;;;;;;;2.33;1.95;;;23.90;99.90;;;;;;4846983;29;20045;-86
2022/07/24 10:14:43;;;;;;;3.63;1.73;;;23.90;99.90;;;;;;4846500;29;20053;-86
2022/07/24 10:17:11;;;;;;;3.63;2.08;;;24.00;99.90;;;;;;4846832;29;20492;-86
2022/07/24 10:19:45;;;;;;;2.55;1.67;;;24.10;99.90;;;;;;4846530;29;20049;-86
2022/07/24 10:22:17;;;;;;;1.77;1.65;;;24.10;99.90;;;;;;4855774;29;20058;-86
2022/07/24 10:24:55;;;;;;;1.98;1.48;;;24.20;99.90;;;;;;4843676;29;20053;-86
2022/07/24 10:27:24;;;;;;;2.28;1.60;;;24.40;99.90;;;;;;4843659;29;20072;-89
2022/07/24 10:29:52;;;;;;;2.42;1.52;;;24.40;99.90;;;;;;4828933;29;20057;-86
2022/07/24 10:32:18;;;;;;;3.10;1.70;;;24.50;99.90;;;;;;4832212;29;20053;-86
2022/07/24 10:35:03;;;;;;;;;;;24.60;99.90;;;;;;4863933;29;20186;-86
2022/07/24 10:37:41;;;;;;;1.60;1.50;;;24.70;99.90;;;;;;4846953;29;19924;-87
2022/07/24 10:40:28;;;;;;;1.75;1.50;;;24.70;99.90;;;;;;4832126;29;20052;-86
2022/07/24 10:43:09;;;;;;;1.25;1.10;;;24.80;99.90;;;;;;4847631;29;20473;-86
2022/07/24 10:45:36;;;;;;;2.33;1.63;;;24.80;99.90;;;;;;4831461;29;20144;-86
2022/07/24 10:48:20;;;;;;;2.40;1.70;;;24.90;99.90;;;;;;4850432;29;20101;-87
2022/07/24 10:51:01;;;;;;;7.35;2.05;;;24.90;99.90;;;;;;4831344;29;20057;-86
2022/07/24 10:53:38;;;;;;;2.70;1.80;;;25.00;99.90;;;;;;4861938;29;20053;-87
2022/07/24 10:56:24;;;;;;;1.67;1.20;;;25.00;99.90;;;;;;4846689;29;20054;-86
2022/07/24 10:59:03;;;;;;;2.67;1.83;;;25.10;99.90;;;;;;4862479;29;20053;-87
2022/07/24 11:01:35;;;;;;;5.63;2.03;;;25.20;99.90;;;;;;4846389;29;20045;-86
2022/07/24 11:04:23;;;;;;;2.08;1.65;;;25.30;99.90;;;;;;4831608;29;20098;-86
2022/07/24 11:07:07;;;;;;;6.45;2.95;;;25.20;99.90;;;;;;4862048;29;20049;-86
2022/07/24 11:10:00;;;;;;;2.28;1.83;;;25.10;99.90;;;;;;4846606;29;20140;-87
2022/07/24 11:12:28;;;;;;;3.63;1.73;;;25.00;99.90;;;;;;4831388;29;20057;-94
2022/07/24 11:17:47;;;;;;;3.63;1.73;;;24.80;99.90;;;;;;4864692;29;20540;-87
2022/07/24 11:20:16;;;;;;;3.05;1.92;;;24.80;99.90;;;;;;4864999;29;20389;-86
2022/07/24 11:22:52;;;;;;;2.50;1.50;;;25.00;99.90;;;;;;4864696;29;20108;-86
2022/07/24 11:25:31;;;;;;;2.03;1.83;;;25.10;99.90;;;;;;4865294;29;20132;-87
2022/07/24 11:28:05;;;;;;;1.65;1.35;;;25.20;99.90;;;;;;4865173;29;20067;-87
2022/07/24 11:30:31;;;;;;;1.63;1.52;;;25.30;99.90;;;;;;4849382;29;20049;-87
2022/07/24 11:32:58;;;;;;;2.22;1.80;;;25.40;99.90;;;;;;4864846;29;20056;-86
2022/07/24 11:35:32;;;;;;;2.15;1.65;;;25.50;99.90;;;;;;4865151;29;20049;-87
2022/07/24 11:38:00;;;;;;;1.75;1.65;;;25.50;99.90;;;;;;4864777;29;20060;-86
2022/07/24 11:40:35;;;;;;;2.03;1.33;;;25.50;99.90;;;;;;4864147;29;20057;-94
2022/07/24 11:43:04;;;;;;;5.22;1.80;;;25.60;99.90;;;;;;4864873;29;20049;-86
2022/07/24 11:45:30;;;;;;;2.00;1.80;;;25.70;99.90;;;;;;4863646;29;20045;-91
2022/07/24 11:47:56;;;;;;;2.53;1.63;;;25.70;99.90;;;;;;4864281;29;20071;-87
2022/07/24 11:50:32;;;;;;;1.88;1.25;;;25.70;99.90;;;;;;4864340;29;20060;-91
2022/07/24 11:53:07;;;;;;;1.88;1.50;;;25.80;99.90;;;;;;4849139;29;20099;-87
2022/07/24 11:55:33;;;;;;;2.25;1.67;;;25.80;99.90;;;;;;4836206;29;20247;-91
2022/07/24 11:57:59;;;;;;;1.80;1.08;;;25.80;99.90;;;;;;4834067;29;20532;-87
2022/07/24 12:00:30;;;;;;;2.03;1.48;;;25.80;99.90;;;;;;4849215;29;20459;-87
2022/07/24 12:03:01;;;;;;;3.00;1.85;;;25.80;99.90;;;;;;4863967;29;20129;-87
2022/07/24 12:05:31;;;;;;;2.33;1.83;;;25.80;99.90;;;;;;4849127;29;20053;-87
2022/07/24 12:08:00;;;;;;;2.05;1.90;;;25.90;99.90;;;;;;4857089;29;20420;-87
2022/07/24 12:10:27;;;;;;;4.95;2.25;;;26.00;99.90;;;;;;4830599;29;20049;-87
2022/07/24 12:12:54;;;;;;;1.80;1.70;;;26.00;99.90;;;;;;4845304;29;20078;-87
2022/07/24 12:15:21;;;;;;;4.03;1.35;;;26.00;99.90;;;;;;4860627;29;20046;-87
2022/07/24 12:18:09;;;;;;;1.55;1.23;;;25.90;99.90;;;;;;4830025;29;20544;-87
2022/07/24 12:20:40;;;;;;;1.52;1.38;;;26.20;99.50;;;;;;4845427;29;20049;-91
2022/07/24 12:23:11;;;;;;;1.95;1.35;;;26.20;99.10;;;;;;4845582;29;20148;-87
2022/07/24 12:25:38;;;;;;;2.75;1.58;;;26.30;99.20;;;;;;4830246;29;20052;-92
2022/07/24 12:28:10;;;;;;;2.13;1.48;;;26.30;98.40;;;;;;4830499;29;20089;-87
2022/07/24 12:30:41;;;;;;;1.92;1.50;;;26.30;98.50;;;;;;4829900;29;20060;-91
2022/07/24 12:33:18;;;;;;;1.77;1.50;;;26.40;97.30;;;;;;4830544;29;20053;-87
2022/07/24 12:36:08;;;;;;;1.60;1.50;;;26.50;98.20;;;;;;4845018;29;20050;-86
2022/07/24 12:38:38;;;;;;;2.03;1.48;;;27.20;96.50;;;;;;4860338;29;20236;-87
2022/07/24 12:41:12;;;;;;;2.80;1.65;;;26.50;97.60;;;;;;4829849;29;20082;-87
2022/07/24 12:43:57;;;;;;;2.38;1.58;;;26.60;97.20;;;;;;4829950;29;20060;-93
2022/07/24 12:46:40;;;;;;;1.95;1.70;;;26.70;96.50;;;;;;4860532;29;20068;-87
2022/07/24 12:49:11;;;;;;;4.80;1.65;;;26.70;95.70;;;;;;4845580;29;20053;-87
2022/07/24 12:52:18;;;;;;;2.17;1.92;;;26.60;96.70;;;;;;4830258;29;20049;-87
2022/07/24 12:54:47;;;;;;;2.78;1.58;;;26.60;97.40;;;;;;4821997;29;20137;-88